Time;durP1;ratioP1;P1;durP2;ratioP2;P2;SDS_P1;SDS_P2;PMS_P1;PMS_P2;Temp;Humidity;BMP_temperature;BMP_pressure;BME280_temperature;BME280_humidity;BME280_pressure;Samples;Min_cycle;Max_cycle;Signal;HPM_P1;HPM_P2
2022/03/03 00:01:44;;;;;;;;;;;;;;;5.06;42.14;101904.56;5089125;28;20343;-65
2022/03/03 00:04:11;;;;;;;;;;;;;;;4.96;42.06;101908.28;5090980;28;19916;-65
2022/03/03 00:06:37;;;;;;;;;;;;;;;4.91;43.07;101899.59;5096763;28;19912;-66
2022/03/03 00:09:03;;;;;;;;;;;;;;;4.83;42.62;101894.53;5093302;28;19916;-65
2022/03/03 00:11:31;;;;;;;;;;;;;;;4.81;42.24;101895.47;5091186;28;19912;-66
2022/03/03 00:13:57;;;;;;;;;;;;;;;4.76;43.38;101888.53;5090665;28;19923;-65
2022/03/03 00:16:25;;;;;;;;;;;;;;;4.66;42.68;101889.63;5089112;28;20350;-65
2022/03/03 00:18:51;;;;;;;;;;;;;;;4.63;42.94;101886.19;5092151;28;20353;-65
2022/03/03 00:21:16;;;;;;;;;;;;;;;4.62;42.55;101887.06;5089248;28;20007;-65
2022/03/03 00:23:41;;;;;;;;;;;;;;;4.59;43.64;101888.03;5090488;28;19912;-65
2022/03/03 00:26:07;;;;;;;;;;;;;;;4.55;44.15;101884.56;5104837;28;19937;-65
2022/03/03 00:28:34;;;;;;;;;;;;;;;4.49;42.85;101884.69;5090818;28;19916;-65
2022/03/03 00:31:00;;;;;;;;;;;;;;;4.48;43.16;101880.34;5091977;28;19924;-65
2022/03/03 00:33:25;;;;;;;;;;;;;;;4.45;42.87;101882.19;5100331;28;19923;-66
2022/03/03 00:35:51;;;;;;;;;;;;;;;4.41;44.09;101888.38;5097571;28;20320;-66
2022/03/03 00:38:16;;;;;;;;;;;;;;;4.29;44.49;101889.50;5090468;28;19919;-65
2022/03/03 00:40:42;;;;;;;;;;;;;;;4.25;45.27;101890.47;5090737;28;19912;-65
2022/03/03 00:43:08;;;;;;;;;;;;;;;4.19;43.94;101888.84;5105534;28;19911;-65
2022/03/03 00:45:36;;;;;;;;;;;;;;;4.10;44.43;101887.25;5100329;28;19915;-65
2022/03/03 00:48:02;;;;;;;;;;;;;;;4.06;44.75;101890.00;5088859;28;19920;-66
2022/03/03 00:50:30;;;;;;;;;;;;;;;4.06;44.79;101882.09;5091348;28;20011;-66
2022/03/03 00:52:59;;;;;;;;;;;;;;;4.03;45.09;101885.66;5096613;28;19920;-65
2022/03/03 00:55:24;;;;;;;;;;;;;;;4.00;45.88;101887.44;5093315;28;20378;-65
2022/03/03 00:57:50;;;;;;;;;;;;;;;3.97;44.41;101880.50;5096125;28;20022;-65
2022/03/03 01:00:18;;;;;;;;;;;;;;;3.97;44.88;101875.25;5093612;28;19968;-65
2022/03/03 01:02:44;;;;;;;;;;;;;;;3.98;44.41;101882.22;5093226;28;19912;-65
2022/03/03 01:05:09;;;;;;;;;;;;;;;3.98;44.76;101882.22;5091933;28;19912;-65
2022/03/03 01:07:37;;;;;;;;;;;;;;;3.98;44.53;101871.69;5093865;28;19916;-65
2022/03/03 01:10:04;;;;;;;;;;;;;;;3.97;45.10;101874.34;5100900;28;19938;-65
2022/03/03 01:12:29;;;;;;;;;;;;;;;3.93;46.91;101876.16;5095549;28;19923;-65
2022/03/03 01:14:55;;;;;;;;;;;;;;;3.93;45.60;101880.56;5098804;28;19920;-65
2022/03/03 01:17:20;;;;;;;;;;;;;;;3.89;44.83;101878.91;5099900;28;19923;-65
2022/03/03 01:19:46;;;;;;;;;;;;;;;3.89;45.54;101877.13;5093486;28;19955;-65
2022/03/03 01:22:11;;;;;;;;;;;;;;;3.93;44.80;101877.94;5101369;28;19915;-65
2022/03/03 01:24:37;;;;;;;;;;;;;;;3.94;44.87;101870.03;5093977;28;20272;-65
2022/03/03 01:27:02;;;;;;;;;;;;;;;3.92;47.08;101876.22;5095736;28;19937;-65
2022/03/03 01:29:27;;;;;;;;;;;;;;;3.86;45.41;101874.56;5099643;28;19923;-65
2022/03/03 01:31:55;;;;;;;;;;;;;;;3.84;45.23;101871.94;5097363;28;19915;-65
2022/03/03 01:34:21;;;;;;;;;;;;;;;3.81;45.29;101873.78;5096237;28;19944;-65
2022/03/03 01:36:49;;;;;;;;;;;;;;;3.79;45.67;101873.78;5097619;28;19959;-65
2022/03/03 01:39:14;;;;;;;;;;;;;;;3.74;45.60;101865.13;5092279;28;19924;-65
2022/03/03 01:41:41;;;;;;;;;;;;;;;3.65;45.87;101857.41;5094914;28;20010;-65
2022/03/03 01:44:07;;;;;;;;;;;;;;;3.61;45.53;101853.09;5096315;28;19916;-65
2022/03/03 01:46:32;;;;;;;;;;;;;;;3.58;46.09;101843.47;5092728;28;19912;-65
2022/03/03 01:48:58;;;;;;;;;;;;;;;3.55;46.41;101847.94;5093433;28;19923;-65
2022/03/03 01:51:23;;;;;;;;;;;;;;;3.48;46.69;101838.44;5093190;28;20320;-65
2022/03/03 01:53:48;;;;;;;;;;;;;;;3.46;46.49;101841.06;5096029;28;19968;-65
2022/03/03 01:56:14;;;;;;;;;;;;;;;3.46;47.37;101841.06;5114340;27;19924;-65
2022/03/03 01:58:40;;;;;;;;;;;;;;;3.45;47.53;101843.75;5093299;28;20002;-65
2022/03/03 02:01:05;;;;;;;;;;;;;;;3.43;47.06;101849.03;5098664;28;19923;-65
2022/03/03 02:03:31;;;;;;;;;;;;;;;3.41;46.63;101840.28;5106271;28;20275;-65
2022/03/03 02:05:56;;;;;;;;;;;;;;;3.37;47.44;101838.63;5094258;28;19919;-65
2022/03/03 02:08:24;;;;;;;;;;;;;;;3.34;47.55;101830.78;5082830;28;19924;-66
2022/03/03 02:10:52;;;;;;;;;;;;;;;3.35;47.06;101832.50;5098830;28;19928;-65
2022/03/03 02:13:20;;;;;;;;;;;;;;;3.37;48.04;101828.09;5101128;28;19919;-65
2022/03/03 02:15:50;;;;;;;;;;;;;;;3.33;47.69;101824.66;5107596;28;20310;-65
2022/03/03 02:18:15;;;;;;;;;;;;;;;3.32;48.33;101828.16;5092844;28;20367;-65
2022/03/03 02:20:41;;;;;;;;;;;;;;;3.31;48.48;101820.31;5107411;28;19976;-65
2022/03/03 02:23:07;;;;;;;;;;;;;;;3.29;47.57;101819.47;5093009;28;19912;-65
2022/03/03 02:25:32;;;;;;;;;;;;;;;3.28;49.31;101807.22;5092467;28;19919;-65
2022/03/03 02:27:58;;;;;;;;;;;;;;;3.30;49.54;101805.44;5092055;28;19920;-65
2022/03/03 02:30:23;;;;;;;;;;;;;;;3.30;50.45;101802.81;5074168;28;20010;-65
2022/03/03 02:32:48;;;;;;;;;;;;;;;3.34;49.84;101810.59;5101759;28;19969;-65
2022/03/03 02:35:14;;;;;;;;;;;;;;;3.36;48.48;101807.97;5099170;28;19920;-65
2022/03/03 02:37:41;;;;;;;;;;;;;;;3.41;48.98;101808.72;5099759;28;20327;-65
2022/03/03 02:40:10;;;;;;;;;;;;;;;3.40;47.94;101807.88;5099222;28;19912;-65
2022/03/03 02:42:36;;;;;;;;;;;;;;;3.35;47.36;101807.09;5093493;28;20278;-65
2022/03/03 02:45:02;;;;;;;;;;;;;;;3.33;47.07;101803.63;5091550;28;19912;-65
2022/03/03 02:47:28;;;;;;;;;;;;;;;3.27;47.36;101805.50;5091638;28;19937;-65
2022/03/03 02:49:53;;;;;;;;;;;;;;;3.18;47.51;101807.38;5100382;28;19919;-65
2022/03/03 02:52:18;;;;;;;;;;;;;;;3.18;47.49;101807.38;5095379;28;19985;-65
2022/03/03 02:54:44;;;;;;;;;;;;;;;3.19;47.54;101806.47;5094343;28;20397;-65
2022/03/03 02:59:53;;;;;;;;;;;;;;;3.16;47.51;101805.66;5099759;28;19923;-65
2022/03/03 03:02:18;;;;;;;;;;;;;;;3.15;47.41;101801.31;5093243;28;19912;-65
2022/03/03 03:04:44;;;;;;;;;;;;;;;3.09;47.36;101801.41;5091434;28;20002;-65
2022/03/03 03:07:11;;;;;;;;;;;;;;;3.05;48.58;101797.94;5090132;28;19912;-65
2022/03/03 03:09:38;;;;;;;;;;;;;;;2.98;47.78;101801.59;5091694;28;21385;-65
2022/03/03 03:12:03;;;;;;;;;;;;;;;2.96;47.40;101800.75;5088382;28;20317;-65
2022/03/03 03:14:29;;;;;;;;;;;;;;;2.95;47.96;101799.88;5091656;28;19923;-65
2022/03/03 03:16:54;;;;;;;;;;;;;;;2.91;47.82;101805.19;5094191;28;19976;-65
2022/03/03 03:19:20;;;;;;;;;;;;;;;2.88;47.87;101800.88;5090809;28;19911;-65
2022/03/03 03:21:46;;;;;;;;;;;;;;;2.83;48.87;101800.06;5098456;28;19922;-65
2022/03/03 03:24:12;;;;;;;;;;;;;;;2.79;48.55;101797.50;5109743;28;19915;-65
2022/03/03 03:26:37;;;;;;;;;;;;;;;2.69;48.18;101791.53;5102055;28;19919;-65
2022/03/03 03:29:03;;;;;;;;;;;;;;;2.64;48.07;101788.97;5091074;28;19916;-65
2022/03/03 03:31:29;;;;;;;;;;;;;;;2.64;48.60;101788.09;5105143;27;19916;-65
2022/03/03 03:33:54;;;;;;;;;;;;;;;2.63;48.44;101787.25;5095989;28;19916;-67
2022/03/03 03:36:20;;;;;;;;;;;;;;;2.61;48.64;101778.50;5090305;28;20256;-67
2022/03/03 03:38:45;;;;;;;;;;;;;;;2.54;50.09;101779.50;5091553;28;20264;-67
2022/03/03 03:41:10;;;;;;;;;;;;;;;2.50;50.25;101781.31;5091506;28;20393;-67
2022/03/03 03:43:36;;;;;;;;;;;;;;;2.48;48.89;101782.22;5091549;28;19916;-67
2022/03/03 03:46:01;;;;;;;;;;;;;;;2.45;49.34;101777.88;5085466;28;19922;-67
2022/03/03 03:48:26;;;;;;;;;;;;;;;2.43;50.11;101774.41;5091182;28;19919;-67
2022/03/03 03:50:52;;;;;;;;;;;;;;;2.41;49.28;101777.94;5095000;28;20000;-67
2022/03/03 03:53:20;;;;;;;;;;;;;;;2.40;49.35;101768.34;5097165;27;19915;-67
2022/03/03 03:55:45;;;;;;;;;;;;;;;2.38;49.26;101763.13;5098888;28;19916;-67
2022/03/03 03:58:11;;;;;;;;;;;;;;;2.33;49.34;101758.81;5097668;28;19916;-67
2022/03/03 04:00:37;;;;;;;;;;;;;;;2.33;49.41;101764.94;5091091;28;20019;-67
2022/03/03 04:03:02;;;;;;;;;;;;;;;2.32;49.71;101764.94;5092161;28;19965;-67
2022/03/03 04:05:27;;;;;;;;;;;;;;;2.31;50.78;101763.22;5090840;28;20426;-67
2022/03/03 04:07:53;;;;;;;;;;;;;;;2.31;52.08;101758.81;5090833;28;19957;-67
2022/03/03 04:10:18;;;;;;;;;;;;;;;2.36;52.85;101769.28;5103591;28;19912;-67
2022/03/03 04:12:43;;;;;;;;;;;;;;;2.42;52.79;101763.94;5103767;28;20003;-67
2022/03/03 04:15:09;;;;;;;;;;;;;;;2.52;52.83;101770.78;5089125;28;19920;-64
2022/03/03 04:17:35;;;;;;;;;;;;;;;2.62;52.91;101767.13;5089299;28;20007;-66
2022/03/03 04:20:00;;;;;;;;;;;;;;;2.72;51.71;101762.59;5096090;28;20338;-66
2022/03/03 04:22:25;;;;;;;;;;;;;;;2.72;52.69;101762.59;5091392;28;20383;-66
2022/03/03 04:24:51;;;;;;;;;;;;;;;2.65;50.52;101759.22;5089771;28;19969;-66
2022/03/03 04:27:16;;;;;;;;;;;;;;;2.54;50.39;101753.25;5094761;28;19915;-66
2022/03/03 04:29:42;;;;;;;;;;;;;;;2.46;49.75;101749.88;5094044;28;19924;-66
2022/03/03 04:32:09;;;;;;;;;;;;;;;2.40;49.91;101744.72;5094352;28;19912;-66
2022/03/03 04:34:35;;;;;;;;;;;;;;;2.30;52.17;101743.97;5104821;28;20377;-66
2022/03/03 04:37:01;;;;;;;;;;;;;;;2.29;52.65;101744.84;5101127;28;19916;-66
2022/03/03 04:39:26;;;;;;;;;;;;;;;2.32;51.65;101743.94;5096092;28;19919;-66
2022/03/03 04:41:51;;;;;;;;;;;;;;;2.29;53.11;101744.84;5093182;28;19912;-66
2022/03/03 04:44:19;;;;;;;;;;;;;;;2.22;52.83;101741.44;5114721;28;19911;-66
2022/03/03 04:46:45;;;;;;;;;;;;;;;2.19;51.12;101741.50;5096213;28;19923;-66
2022/03/03 04:49:10;;;;;;;;;;;;;;;2.12;50.95;101728.47;5094311;28;19916;-66
2022/03/03 04:51:36;;;;;;;;;;;;;;;2.09;51.43;101723.25;5100135;28;20339;-66
2022/03/03 04:54:03;;;;;;;;;;;;;;;2.02;51.03;101722.50;5111756;28;19920;-66
2022/03/03 04:56:28;;;;;;;;;;;;;;;2.00;50.48;101726.88;5093220;28;19919;-66
2022/03/03 04:58:53;;;;;;;;;;;;;;;1.95;52.47;101716.47;5098282;28;20286;-66
2022/03/03 05:01:19;;;;;;;;;;;;;;;1.92;50.74;101720.91;5100240;28;19941;-66
2022/03/03 05:03:45;;;;;;;;;;;;;;;1.89;52.01;101718.31;5093435;28;19926;-66
2022/03/03 05:06:12;;;;;;;;;;;;;;;1.87;50.68;101728.81;5102906;28;19911;-66
2022/03/03 05:08:38;;;;;;;;;;;;;;;1.86;50.29;101729.72;5094318;28;20282;-66
2022/03/03 05:11:05;;;;;;;;;;;;;;;1.85;51.30;101732.34;5094916;28;19915;-66
2022/03/03 05:13:31;;;;;;;;;;;;;;;1.80;50.91;101733.28;5105578;28;20268;-66
2022/03/03 05:15:56;;;;;;;;;;;;;;;1.77;51.45;101730.69;5076749;28;19923;-66
2022/03/03 05:18:21;;;;;;;;;;;;;;;1.74;51.65;101732.50;5102310;28;19943;-66
2022/03/03 05:20:47;;;;;;;;;;;;;;;1.70;50.50;101734.25;5100604;28;20380;-66
2022/03/03 05:23:13;;;;;;;;;;;;;;;1.68;51.04;101735.19;5094781;28;19923;-66
2022/03/03 05:25:38;;;;;;;;;;;;;;;1.68;50.57;101732.56;5101618;28;20339;-66
2022/03/03 05:28:04;;;;;;;;;;;;;;;1.69;50.68;101731.66;5093662;28;19969;-66
2022/03/03 05:30:29;;;;;;;;;;;;;;;1.66;50.81;101736.94;5098527;28;20290;-66
2022/03/03 05:32:55;;;;;;;;;;;;;;;1.61;51.94;101730.88;5093662;28;20302;-66
2022/03/03 05:35:21;;;;;;;;;;;;;;;1.59;50.96;101734.41;5108705;28;19919;-66
2022/03/03 05:37:46;;;;;;;;;;;;;;;1.59;51.45;101741.41;5096287;28;19927;-66
2022/03/03 05:40:12;;;;;;;;;;;;;;;1.56;50.45;101742.31;5092046;28;19916;-66
2022/03/03 05:42:38;;;;;;;;;;;;;;;1.52;51.75;101731.84;5095064;28;19958;-66
2022/03/03 05:45:04;;;;;;;;;;;;;;;1.46;50.83;101747.66;5093737;28;19965;-66
2022/03/03 05:47:29;;;;;;;;;;;;;;;1.43;51.31;101740.69;5093750;28;20018;-66
2022/03/03 05:49:55;;;;;;;;;;;;;;;1.41;50.91;101752.06;5091501;28;19919;-66
2022/03/03 05:52:20;;;;;;;;;;;;;;;1.35;51.62;101751.28;5092709;28;19908;-66
2022/03/03 05:54:47;;;;;;;;;;;;;;;1.33;51.67;101752.16;5095003;28;20011;-66
2022/03/03 05:57:17;;;;;;;;;;;;;;;1.29;51.26;101740.81;5090365;28;19912;-66
2022/03/03 05:59:42;;;;;;;;;;;;;;;1.27;52.57;101734.75;5095161;28;19934;-67
2022/03/03 06:02:08;;;;;;;;;;;;;;;1.26;52.74;101743.47;5090916;28;20417;-66
2022/03/03 06:04:37;;;;;;;;;;;;;;;1.25;52.03;101744.38;5098427;28;19912;-66
2022/03/03 06:07:04;;;;;;;;;;;;;;;1.22;53.12;101740.94;5106128;28;19912;-66
2022/03/03 06:09:31;;;;;;;;;;;;;;;1.20;52.36;101738.31;5092903;28;20317;-66
2022/03/03 06:11:59;;;;;;;;;;;;;;;1.19;53.00;101738.34;5105686;28;19937;-66
2022/03/03 06:14:30;;;;;;;;;;;;;;;1.19;53.44;101733.09;5092904;28;19999;-66
2022/03/03 06:16:59;;;;;;;;;;;;;;;1.17;53.13;101734.84;5092783;28;19916;-66
2022/03/03 06:19:25;;;;;;;;;;;;;;;1.15;51.83;101732.25;5100551;28;19919;-66
2022/03/03 06:21:50;;;;;;;;;;;;;;;1.16;52.45;101733.13;5094206;28;19912;-66
2022/03/03 06:24:15;;;;;;;;;;;;;;;1.14;51.99;101731.38;5098551;28;19923;-66
2022/03/03 06:26:41;;;;;;;;;;;;;;;1.13;54.07;101728.78;5092722;28;20453;-66
2022/03/03 06:29:06;;;;;;;;;;;;;;;1.09;52.70;101732.31;5091446;28;19935;-66
2022/03/03 06:31:31;;;;;;;;;;;;;;;1.02;52.90;101741.09;5091135;28;20348;-66
2022/03/03 06:33:56;;;;;;;;;;;;;;;0.97;53.51;101735.03;5091630;28;19969;-66
2022/03/03 06:36:22;;;;;;;;;;;;;;;0.98;55.71;101742.91;5088822;28;19938;-66
2022/03/03 06:38:47;;;;;;;;;;;;;;;1.05;56.36;101741.06;5093699;28;20389;-66
2022/03/03 06:41:13;;;;;;;;;;;;;;;1.12;55.55;101743.63;5101916;28;19912;-66
2022/03/03 06:43:41;;;;;;;;;;;;;;;1.18;56.47;101739.19;5098755;28;19919;-66
2022/03/03 06:46:06;;;;;;;;;;;;;;;1.23;55.91;101738.28;5089965;28;19912;-66
2022/03/03 06:48:31;;;;;;;;;;;;;;;1.32;56.11;101738.22;5089885;28;20002;-66
2022/03/03 06:51:02;;;;;;;;;;;;;;;1.42;55.25;101752.06;5092358;28;20287;-66
2022/03/03 06:53:29;;;;;;;;;;;;;;;1.45;56.05;101752.03;5110743;28;19923;-66
2022/03/03 06:56:04;;;;;;;;;;;;;;;1.49;54.72;101747.63;5089183;28;19912;-66
2022/03/03 06:58:29;;;;;;;;;;;;;;;1.50;55.91;101751.97;5108066;28;20370;-66
2022/03/03 07:00:56;;;;;;;;;;;;;;;1.53;55.52;101747.59;5094533;28;19922;-66
2022/03/03 07:03:22;;;;;;;;;;;;;;;1.61;55.90;101755.34;5094271;28;19912;-66
2022/03/03 07:05:48;;;;;;;;;;;;;;;1.71;56.09;101757.00;5091461;28;19912;-66
2022/03/03 07:08:13;;;;;;;;;;;;;;;1.78;55.00;101757.78;5092539;28;19912;-66
2022/03/03 07:10:39;;;;;;;;;;;;;;;1.84;54.30;101756.84;5090900;28;20310;-66
2022/03/03 07:13:07;;;;;;;;;;;;;;;1.93;55.42;101765.44;5092270;28;19920;-66
2022/03/03 07:15:34;;;;;;;;;;;;;;;2.03;55.42;101768.84;5093226;28;19938;-66
2022/03/03 07:18:07;;;;;;;;;;;;;;;2.14;55.28;101773.94;5092431;28;19973;-66
2022/03/03 07:20:40;;;;;;;;;;;;;;;2.21;55.10;101771.22;5092229;28;19911;-66
2022/03/03 07:23:24;;;;;;;;;;;;;;;2.36;54.93;101771.91;5092182;28;20362;-66
2022/03/03 07:25:51;;;;;;;;;;;;;;;2.46;54.58;101771.72;5100237;28;19912;-66
2022/03/03 07:28:20;;;;;;;;;;;;;;;2.58;54.74;101770.69;5112745;28;19919;-66
2022/03/03 07:30:49;;;;;;;;;;;;;;;2.66;54.08;101770.56;5112385;28;20322;-66
2022/03/03 07:33:24;;;;;;;;;;;;;;;2.73;53.40;101772.19;5112477;28;19916;-66
2022/03/03 07:35:50;;;;;;;;;;;;;;;2.83;53.12;101768.56;5092284;28;19927;-66
2022/03/03 07:38:19;;;;;;;;;;;;;;;2.90;53.34;101777.19;5091852;28;19919;-66
2022/03/03 07:40:44;;;;;;;;;;;;;;;3.00;52.63;101777.91;5092024;28;19915;-66
2022/03/03 07:43:11;;;;;;;;;;;;;;;3.08;52.95;101773.38;5100383;28;20451;-66
2022/03/03 07:45:37;;;;;;;;;;;;;;;3.13;52.18;101774.19;5109871;28;20349;-66
2022/03/03 07:48:03;;;;;;;;;;;;;;;3.18;52.25;101767.09;5092110;28;19912;-66
2022/03/03 07:50:28;;;;;;;;;;;;;;;3.26;52.38;101767.81;5091833;28;20002;-66
2022/03/03 07:52:58;;;;;;;;;;;;;;;3.36;51.64;101761.50;5091487;28;19928;-66
2022/03/03 07:55:24;;;;;;;;;;;;;;;3.45;51.61;101768.34;5104026;28;19969;-65
2022/03/03 07:58:00;;;;;;;;;;;;;;;3.55;51.39;101769.03;5092105;28;19920;-66
2022/03/03 08:00:30;;;;;;;;;;;;;;;3.68;50.20;101764.38;5104546;28;20320;-65
2022/03/03 08:03:04;;;;;;;;;;;;;;;3.73;51.01;101775.69;5103718;28;20444;-66
2022/03/03 08:05:29;;;;;;;;;;;;;;;3.79;50.81;101765.91;5091464;28;20003;-66
2022/03/03 08:07:56;;;;;;;;;;;;;;;3.90;50.93;101772.75;5090280;28;20433;-66
2022/03/03 08:10:24;;;;;;;;;;;;;;;4.02;50.92;101773.34;5090180;28;20286;-66
2022/03/03 08:12:53;;;;;;;;;;;;;;;4.18;50.47;101771.28;5099639;28;19916;-66
2022/03/03 08:15:19;;;;;;;;;;;;;;;4.31;49.95;101774.50;5089108;28;19918;-66
2022/03/03 08:17:48;;;;;;;;;;;;;;;4.40;49.25;101781.31;5091582;28;20153;-66
2022/03/03 08:20:13;;;;;;;;;;;;;;;4.49;49.65;101774.06;5091480;28;19912;-66
2022/03/03 08:22:39;;;;;;;;;;;;;;;4.66;49.66;101771.03;5090039;28;19916;-66
2022/03/03 08:25:06;;;;;;;;;;;;;;;4.86;49.38;101767.09;5090391;28;20465;-65
2022/03/03 08:27:35;;;;;;;;;;;;;;;4.94;48.59;101770.38;5091548;28;19951;-66
2022/03/03 08:30:03;;;;;;;;;;;;;;;5.01;48.52;101756.16;5088588;28;19912;-66
2022/03/03 08:32:31;;;;;;;;;;;;;;;5.11;47.56;101764.69;5087514;28;20483;-66
2022/03/03 08:35:35;;;;;;;;;;;;;;;5.21;47.68;101769.69;5106023;28;19912;-66
2022/03/03 08:38:05;;;;;;;;;;;;;;;5.38;47.54;101768.38;5065612;28;19923;-66
2022/03/03 08:40:31;;;;;;;;;;;;;;;5.53;46.94;101767.09;5087782;28;19912;-66
2022/03/03 08:42:59;;;;;;;;;;;;;;;5.70;47.11;101762.22;5088641;28;19911;-66
2022/03/03 08:45:29;;;;;;;;;;;;;;;5.85;46.22;101767.06;5090495;28;19939;-66
2022/03/03 08:48:14;;;;;;;;;;;;;;;5.99;45.29;101773.75;5100510;28;20690;-66
2022/03/03 08:50:42;;;;;;;;;;;;;;;6.07;44.97;101777.03;5090932;28;19919;-67
2022/03/03 08:53:10;;;;;;;;;;;;;;;6.16;45.83;101774.13;5088219;28;19923;-75
2022/03/03 08:55:36;;;;;;;;;;;;;;;6.32;44.53;101764.84;5085750;28;19919;-66
2022/03/03 08:58:03;;;;;;;;;;;;;;;6.38;44.89;101776.97;5088219;28;20014;-66
2022/03/03 09:00:28;;;;;;;;;;;;;;;6.49;43.90;101771.38;5088860;28;19912;-66
2022/03/03 09:02:54;;;;;;;;;;;;;;;6.48;44.19;101773.16;5084340;28;19920;-66
2022/03/03 09:05:19;;;;;;;;;;;;;;;6.54;43.76;101770.31;5089989;28;20374;-67
2022/03/03 09:07:47;;;;;;;;;;;;;;;6.63;42.96;101778.88;5092590;28;19919;-67
2022/03/03 09:10:13;;;;;;;;;;;;;;;6.68;43.16;101782.25;5094745;28;19962;-67
2022/03/03 09:12:39;;;;;;;;;;;;;;;6.77;43.93;101768.72;5089782;28;19963;-67
2022/03/03 09:15:05;;;;;;;;;;;;;;;6.92;42.74;101777.94;5093094;28;19969;-67
2022/03/03 09:17:30;;;;;;;;;;;;;;;7.05;42.83;101780.09;5094392;28;19965;-66
2022/03/03 09:19:56;;;;;;;;;;;;;;;7.22;41.97;101770.75;5093001;28;19919;-66
2022/03/03 09:22:21;;;;;;;;;;;;;;;7.36;41.92;101776.44;5094501;28;20390;-67
2022/03/03 09:24:46;;;;;;;;;;;;;;;7.58;41.29;101776.53;5091107;28;20185;-67
2022/03/03 09:27:12;;;;;;;;;;;;;;;7.74;40.93;101763.63;5106975;28;19912;-68
2022/03/03 09:29:37;;;;;;;;;;;;;;;7.82;41.37;101756.22;5092749;28;19961;-67
2022/03/03 09:32:05;;;;;;;;;;;;;;;7.94;41.48;101761.09;5099184;28;19919;-67
2022/03/03 09:34:31;;;;;;;;;;;;;;;8.09;41.25;101754.34;5094978;28;20131;-67
2022/03/03 09:36:57;;;;;;;;;;;;;;;8.35;41.02;101755.13;5092577;28;20370;-67
2022/03/03 09:39:23;;;;;;;;;;;;;;;8.57;39.04;101747.22;5091385;28;20007;-67
2022/03/03 09:41:52;;;;;;;;;;;;;;;8.75;39.45;101751.78;5095088;28;19986;-67
2022/03/03 09:44:24;;;;;;;;;;;;;;;9.02;38.76;101746.25;5099302;28;19951;-67
2022/03/03 09:46:50;;;;;;;;;;;;;;;9.10;37.58;101752.09;5100413;28;19919;-67
2022/03/03 09:49:15;;;;;;;;;;;;;;;9.11;38.63;101743.19;5103111;28;19916;-68
2022/03/03 09:51:41;;;;;;;;;;;;;;;9.32;38.42;101744.06;5105302;28;20403;-65
2022/03/03 09:54:06;;;;;;;;;;;;;;;9.57;38.63;101740.34;5095248;28;19963;-65
2022/03/03 09:56:32;;;;;;;;;;;;;;;9.69;37.46;101738.00;5093489;28;19912;-65
2022/03/03 09:58:57;;;;;;;;;;;;;;;9.76;37.67;101749.19;5109947;28;19912;-66
2022/03/03 10:01:29;;;;;;;;;;;;;;;9.87;36.14;101754.03;5100719;28;19916;-66
2022/03/03 10:03:57;;;;;;;;;;;;;;;9.89;35.69;101752.19;5103270;28;20032;-66
2022/03/03 10:06:23;;;;;;;;;;;;;;;9.94;36.18;101756.38;5103550;28;19998;-66
2022/03/03 10:08:49;;;;;;;;;;;;;;;10.08;36.77;101749.53;5106046;28;20038;-66
2022/03/03 10:11:15;;;;;;;;;;;;;;;10.22;35.21;101739.97;5099285;28;19915;-65
2022/03/03 10:13:50;;;;;;;;;;;;;;;10.40;34.48;101748.91;5093172;28;20074;-65
2022/03/03 10:16:20;;;;;;;;;;;;;;;10.33;34.74;101749.28;5095733;28;19915;-65
2022/03/03 10:19:12;;;;;;;;;;;;;;;10.50;34.49;101753.78;5092768;28;20295;-65
2022/03/03 10:21:38;;;;;;;;;;;;;;;10.63;33.88;101747.78;5090868;28;20050;-66
2022/03/03 10:24:17;;;;;;;;;;;;;;;10.68;33.45;101745.78;5092890;28;19959;-65
2022/03/03 10:26:44;;;;;;;;;;;;;;;10.94;33.21;101740.94;5091224;28;19912;-66
2022/03/03 10:29:17;;;;;;;;;;;;;;;11.32;33.58;101738.13;5094782;28;19935;-65
2022/03/03 10:31:47;;;;;;;;;;;;;;;11.60;33.64;101737.56;5092316;28;19919;-65
2022/03/03 10:34:22;;;;;;;;;;;;;;;11.77;31.44;101737.53;5092733;28;19924;-65
2022/03/03 10:36:58;;;;;;;;;;;;;;;11.92;33.35;101730.53;5107534;28;19915;-65
2022/03/03 10:39:23;;;;;;;;;;;;;;;12.01;33.02;101719.34;5104769;28;19912;-66
2022/03/03 10:41:53;;;;;;;;;;;;;;;11.94;31.57;101733.09;5092621;28;19916;-66
2022/03/03 10:44:27;;;;;;;;;;;;;;;12.16;31.77;101725.63;5094538;28;19913;-65
2022/03/03 10:47:04;;;;;;;;;;;;;;;12.37;32.10;101728.91;5105682;28;19950;-65
2022/03/03 10:49:31;;;;;;;;;;;;;;;12.31;30.73;101723.94;5090106;28;20385;-66
2022/03/03 10:52:16;;;;;;;;;;;;;;;12.47;33.57;101718.56;5090632;28;19912;-66
2022/03/03 10:54:49;;;;;;;;;;;;;;;12.82;32.22;101708.53;5096905;28;19920;-66
2022/03/03 10:57:33;;;;;;;;;;;;;;;13.24;29.63;101714.94;5106660;28;19912;-66
2022/03/03 11:00:01;;;;;;;;;;;;;;;13.82;28.73;101718.53;5102042;28;19919;-66
2022/03/03 11:02:27;;;;;;;;;;;;;;;14.08;29.14;101715.06;5097846;28;19938;-66
2022/03/03 11:04:53;;;;;;;;;;;;;;;14.22;28.35;101722.22;5104520;28;20370;-66
2022/03/03 11:07:20;;;;;;;;;;;;;;;14.50;27.84;101717.72;5108258;28;19919;-66
2022/03/03 11:09:45;;;;;;;;;;;;;;;14.97;29.36;101709.28;5100440;28;20369;-66
2022/03/03 11:12:10;;;;;;;;;;;;;;;15.45;26.63;101711.34;5096973;28;19916;-66
2022/03/03 11:14:37;;;;;;;;;;;;;;;15.83;27.63;101721.22;5102457;28;19955;-67
2022/03/03 11:17:03;;;;;;;;;;;;;;;16.13;25.89;101713.66;5104518;28;19911;-66
2022/03/03 11:19:29;;;;;;;;;;;;;;;16.37;25.64;101711.97;5091574;28;20385;-67
2022/03/03 11:21:54;;;;;;;;;;;;;;;16.73;25.54;101713.72;5090570;28;20053;-67
2022/03/03 11:24:21;;;;;;;;;;;;;;;17.09;25.43;101710.13;5097285;28;19998;-67
2022/03/03 11:26:48;;;;;;;;;;;;;;;17.44;24.24;101703.81;5094093;28;19912;-67
2022/03/03 11:29:17;;;;;;;;;;;;;;;18.11;25.47;101703.84;5104727;28;19923;-67
2022/03/03 11:31:44;;;;;;;;;;;;;;;18.43;21.78;101703.06;5101450;28;19941;-67
2022/03/03 11:34:29;;;;;;;;;;;;;;;18.49;21.09;101705.25;5104052;28;19955;-67
2022/03/03 11:37:18;;;;;;;;;;;;;;;18.62;22.49;101702.41;5089736;28;19926;-67
2022/03/03 11:39:53;;;;;;;;;;;;;;;18.94;20.44;101698.84;5085699;28;19919;-67
2022/03/03 11:42:36;;;;;;;;;;;;;;;19.11;19.10;101698.25;5091402;28;19912;-67
2022/03/03 11:45:21;;;;;;;;;;;;;;;19.36;19.91;101685.38;5090547;28;19912;-67
2022/03/03 11:47:50;;;;;;;;;;;;;;;19.72;18.69;101687.56;5094275;28;19912;-67
2022/03/03 11:50:19;;;;;;;;;;;;;;;20.08;20.85;101679.84;5083403;28;19927;-67
2022/03/03 11:52:49;;;;;;;;;;;;;;;20.45;21.53;101664.88;5090481;28;19923;-69
2022/03/03 11:55:26;;;;;;;;;;;;;;;20.80;20.81;101670.59;5090506;28;19915;-70
2022/03/03 11:57:52;;;;;;;;;;;;;;;20.90;19.31;101675.97;5092406;28;19919;-69
2022/03/03 12:00:18;;;;;;;;;;;;;;;21.25;20.28;101674.50;5090331;28;19911;-70
2022/03/03 12:02:52;;;;;;;;;;;;;;;21.58;18.79;101669.56;5098524;28;19943;-69
2022/03/03 12:05:27;;;;;;;;;;;;;;;21.51;17.31;101666.63;5090736;28;19912;-70
2022/03/03 12:07:56;;;;;;;;;;;;;;;21.66;18.73;101657.00;5087809;28;19978;-70
2022/03/03 12:10:22;;;;;;;;;;;;;;;22.11;17.28;101658.88;5106085;28;19918;-70
2022/03/03 12:12:48;;;;;;;;;;;;;;;22.53;19.31;101662.91;5100326;28;19916;-70
2022/03/03 12:15:14;;;;;;;;;;;;;;;22.47;19.30;101666.22;5100812;28;20290;-71
2022/03/03 12:17:45;;;;;;;;;;;;;;;22.75;19.38;101662.44;5090760;28;19923;-70
2022/03/03 12:20:34;;;;;;;;;;;;;;;23.12;18.47;101672.28;5092375;28;19911;-70
2022/03/03 12:23:05;;;;;;;;;;;;;;;23.37;18.26;101656.13;5093527;28;20294;-71
2022/03/03 12:25:50;;;;;;;;;;;;;;;23.85;17.22;101658.25;5099749;28;19923;-71
2022/03/03 12:28:19;;;;;;;;;;;;;;;24.01;17.31;101649.31;5103953;28;19915;-70
2022/03/03 12:30:49;;;;;;;;;;;;;;;24.15;18.29;101656.84;5086335;28;19915;-71
2022/03/03 12:33:24;;;;;;;;;;;;;;;24.03;15.55;101660.84;5087690;28;19915;-71
2022/03/03 12:35:50;;;;;;;;;;;;;;;24.03;15.86;101656.28;5089355;28;19934;-71
2022/03/03 12:38:18;;;;;;;;;;;;;;;24.13;18.73;101658.00;5091497;28;19920;-70
2022/03/03 12:40:44;;;;;;;;;;;;;;;25.02;18.15;101645.53;5087506;28;19916;-71
2022/03/03 12:43:16;;;;;;;;;;;;;;;25.87;13.91;101656.72;5084016;28;20386;-70
2022/03/03 12:45:42;;;;;;;;;;;;;;;25.74;15.63;101651.00;5087311;28;19935;-70
2022/03/03 12:48:07;;;;;;;;;;;;;;;26.05;14.74;101646.41;5089672;28;19920;-68
2022/03/03 12:52:03;;;;;;;11.73;10.52;;;;;;;24.29;14.33;101646.31;5059007;27;2018271;-69